createdAt,value
2022-11-21T00:00:44.530Z,100850.94
2022-11-21T00:03:11.374Z,100854.84
2022-11-21T00:05:43.700Z,100856.88
2022-11-21T00:08:11.891Z,100850.81
2022-11-21T00:10:39.545Z,100849.00
2022-11-21T00:13:06.941Z,100844.56
2022-11-21T00:15:35.802Z,100846.13
2022-11-21T00:18:03.873Z,100847.19
2022-11-21T00:20:30.915Z,100856.88
2022-11-21T00:22:57.596Z,100861.56
2022-11-21T00:25:24.289Z,100870.22
2022-11-21T00:27:52.879Z,100870.44
2022-11-21T00:30:19.538Z,100868.06
2022-11-21T00:32:46.085Z,100865.91
2022-11-21T00:35:13.268Z,100859.28
2022-11-21T00:37:40.196Z,100860.88
2022-11-21T00:40:07.267Z,100865.09
2022-11-21T00:42:33.785Z,100863.28
2022-11-21T00:45:00.302Z,100870.94
2022-11-21T00:47:26.854Z,100862.00
2022-11-21T00:49:53.366Z,100883.00
2022-11-21T00:52:19.791Z,100878.31
2022-11-21T00:54:46.332Z,100880.94
2022-11-21T00:57:12.734Z,100881.75
2022-11-21T00:59:39.307Z,100874.69
2022-11-21T01:02:05.898Z,100868.41
2022-11-21T01:04:33.972Z,100859.72
2022-11-21T01:07:01.252Z,100857.09
2022-11-21T01:09:28.767Z,100862.34
2022-11-21T01:11:56.893Z,100869.44
2022-11-21T01:14:24.098Z,100876.16
2022-11-21T01:16:50.751Z,100861.66
2022-11-21T01:19:17.323Z,100879.00
2022-11-21T01:21:43.808Z,100868.75
2022-11-21T01:24:11.771Z,100866.13
2022-11-21T01:26:39.057Z,100867.16
2022-11-21T01:29:05.920Z,100868.97
2022-11-21T01:31:32.550Z,100864.53
2022-11-21T01:34:00.504Z,100871.38
2022-11-21T01:36:30.188Z,100867.94
2022-11-21T01:39:00.114Z,100862.69
2022-11-21T01:41:33.994Z,100854.84
2022-11-21T01:44:01.864Z,100875.59
2022-11-21T01:46:28.646Z,100869.53
2022-11-21T01:49:04.908Z,100868.75
2022-11-21T01:51:55.759Z,100866.91
2022-11-21T01:54:49.457Z,100865.91
2022-11-21T01:57:21.961Z,100867.47
2022-11-21T01:59:55.780Z,100855.41
2022-11-21T02:02:26.151Z,100860.66
2022-11-21T02:04:53.920Z,100851.16
2022-11-21T02:07:23.325Z,100852.44
2022-11-21T02:09:59.239Z,100853.22
2022-11-21T02:12:41.092Z,100855.06
2022-11-21T02:15:08.338Z,100850.59
2022-11-21T02:17:34.924Z,100855.06
2022-11-21T02:20:07.698Z,100859.50
2022-11-21T02:22:41.642Z,100858.94
2022-11-21T02:25:08.323Z,100853.69
2022-11-21T02:27:35.165Z,100864.75
2022-11-21T02:30:03.531Z,100872.63
2022-11-21T02:32:40.161Z,100871.84
2022-11-21T02:35:07.977Z,100863.97
2022-11-21T02:37:37.550Z,100860.78
2022-11-21T02:40:10.132Z,100858.16
2022-11-21T02:43:00.146Z,100852.09
2022-11-21T02:45:39.289Z,100850.28
2022-11-21T02:48:05.916Z,100851.06
2022-11-21T02:50:34.702Z,100848.22
2022-11-21T02:53:02.112Z,100849.00
2022-11-21T02:55:28.820Z,100850.84
2022-11-21T02:57:57.114Z,100835.31
2022-11-21T03:00:26.017Z,100835.31
2022-11-21T03:02:53.393Z,100830.09
2022-11-21T03:05:20.795Z,100821.41
2022-11-21T03:07:48.103Z,100827.69
2022-11-21T03:10:15.012Z,100830.31
2022-11-21T03:12:43.221Z,100830.31
2022-11-21T03:15:12.712Z,100826.88
2022-11-21T03:17:39.240Z,100815.03
2022-11-21T03:20:07.029Z,100822.09
2022-11-21T03:22:33.825Z,100823.13
2022-11-21T03:25:00.626Z,100820.72
2022-11-21T03:27:27.095Z,100811.03
2022-11-21T03:29:53.672Z,100808.41
2022-11-21T03:32:20.118Z,100814.47
2022-11-21T03:34:46.649Z,100818.88
2022-11-21T03:37:13.256Z,100822.34
2022-11-21T03:39:39.835Z,100808.66
2022-11-21T03:42:06.353Z,100799.16
2022-11-21T03:44:33.028Z,100789.72
2022-11-21T03:46:59.522Z,100798.59
2022-11-21T03:49:26.029Z,100795.19
2022-11-21T03:51:52.649Z,100801.22
2022-11-21T03:54:19.119Z,100810.91
2022-11-21T03:56:45.655Z,100803.28
2022-11-21T03:59:12.221Z,100809.91
2022-11-21T04:01:38.733Z,100815.38
2022-11-21T04:04:05.714Z,100810.91
2022-11-21T04:06:32.356Z,100814.81
2022-11-21T04:08:59.052Z,100801.69
2022-11-21T04:11:25.820Z,100798.50
2022-11-21T04:13:52.973Z,100798.50
2022-11-21T04:16:19.931Z,100790.63
2022-11-21T04:18:46.589Z,100792.22
2022-11-21T04:21:13.091Z,100786.19
2022-11-21T04:23:39.576Z,100790.63
2022-11-21T04:26:06.014Z,100789.38
2022-11-21T04:28:32.593Z,100800.66
2022-11-21T04:31:11.140Z,100808.53
2022-11-21T04:33:39.439Z,100799.88
2022-11-21T04:36:08.334Z,100807.72
2022-11-21T04:38:34.897Z,100799.88
2022-11-21T04:41:01.412Z,100807.72
2022-11-21T04:43:27.972Z,100795.66
2022-11-21T04:45:54.479Z,100790.97
2022-11-21T04:48:21.102Z,100790.97
2022-11-21T04:50:47.630Z,100783.91
2022-11-21T04:53:14.119Z,100780.50
2022-11-21T04:55:40.736Z,100777.88
2022-11-21T04:58:07.281Z,100772.38
2022-11-21T05:00:34.722Z,100767.13
2022-11-21T05:03:03.055Z,100766.34
2022-11-21T05:05:29.713Z,100776.59
2022-11-21T05:07:56.247Z,100762.94
2022-11-21T05:10:22.719Z,100773.19
2022-11-21T05:13:15.557Z,100783.13
2022-11-21T05:15:42.424Z,100775.25
2022-11-21T05:18:08.937Z,100772.63
2022-11-21T05:20:37.003Z,100762.44
2022-11-21T05:23:03.672Z,100762.69
2022-11-21T05:25:30.223Z,100765.06
2022-11-21T05:27:57.026Z,100751.97
2022-11-21T05:30:23.743Z,100750.94
2022-11-21T05:32:50.201Z,100744.88
2022-11-21T05:35:16.788Z,100749.91
2022-11-21T05:37:43.400Z,100745.69
2022-11-21T05:40:10.550Z,100743.06
2022-11-21T05:43:01.199Z,100747.28
2022-11-21T05:45:27.786Z,100745.44
2022-11-21T05:47:55.522Z,100741.00
2022-11-21T05:50:22.179Z,100728.69
2022-11-21T05:52:48.703Z,100728.47
2022-11-21T05:55:15.230Z,100735.53
2022-11-21T05:57:41.770Z,100734.50
2022-11-21T06:00:09.024Z,100732.66
2022-11-21T06:02:54.350Z,100720.34
2022-11-21T06:05:21.050Z,100720.13
2022-11-21T06:07:47.588Z,100711.25
2022-11-21T06:10:14.218Z,100708.63
2022-11-21T06:12:40.779Z,100716.47
2022-11-21T06:15:07.873Z,100715.44
2022-11-21T06:17:34.427Z,100721.25
2022-11-21T06:20:01.131Z,100720.25
2022-11-21T06:22:27.730Z,100715.00
2022-11-21T06:24:54.273Z,100709.50
2022-11-21T06:27:20.802Z,100700.84
2022-11-21T06:29:47.338Z,100697.97
2022-11-21T06:32:13.966Z,100701.63
2022-11-21T06:34:40.490Z,100696.94
2022-11-21T06:37:07.292Z,100698.53
2022-11-21T06:39:34.017Z,100687.00
2022-11-21T06:42:01.901Z,100693.88
2022-11-21T06:44:28.794Z,100689.41
2022-11-21T06:46:55.504Z,100689.41
2022-11-21T06:49:22.380Z,100686.34
2022-11-21T06:51:48.986Z,100684.72
2022-11-21T06:54:17.041Z,100693.16
2022-11-21T06:56:44.259Z,100692.94
2022-11-21T06:59:10.957Z,100690.31
2022-11-21T07:01:37.635Z,100686.63
2022-11-21T07:04:04.627Z,100675.13
2022-11-21T07:06:31.214Z,100676.72
2022-11-21T07:09:30.822Z,100675.69
2022-11-21T07:11:44.759Z,100684.13
2022-11-21T07:14:11.563Z,100677.03
2022-11-21T07:16:38.477Z,100681.81
2022-11-21T07:19:05.084Z,100684.44
2022-11-21T07:21:31.706Z,100687.06
2022-11-21T07:23:58.419Z,100680.56
2022-11-21T07:26:25.001Z,100677.69
2022-11-21T07:28:51.492Z,100664.34
2022-11-21T07:31:18.103Z,100659.88
2022-11-21T07:33:45.773Z,100652.56
2022-11-21T07:36:13.012Z,100658.38
2022-11-21T07:38:41.425Z,100660.06
2022-11-21T07:41:08.572Z,100656.47
2022-11-21T07:43:35.310Z,100655.06
2022-11-21T07:46:01.997Z,100656.25
2022-11-21T07:48:28.626Z,100658.72
2022-11-21T07:50:55.033Z,100668.63
2022-11-21T07:53:21.647Z,100664.53
2022-11-21T07:55:48.275Z,100657.06
2022-11-21T07:58:16.759Z,100661.94
2022-11-21T08:00:43.545Z,100644.94
2022-11-21T08:03:13.525Z,100641.91
2022-11-21T08:05:42.416Z,100646.72
2022-11-21T08:08:13.267Z,100643.94
2022-11-21T08:10:45.651Z,100647.19
2022-11-21T08:13:13.260Z,100645.44
2022-11-21T08:15:40.252Z,100637.59
2022-11-21T08:18:08.954Z,100644.50
2022-11-21T08:20:35.981Z,100636.19
2022-11-21T08:23:03.000Z,100623.91
2022-11-21T08:25:29.927Z,100624.72
2022-11-21T08:27:57.468Z,100621.34
2022-11-21T08:30:24.597Z,100625.88
2022-11-21T08:32:51.386Z,100626.47
2022-11-21T08:35:18.276Z,100622.84
2022-11-21T08:37:44.910Z,100623.72
2022-11-21T08:40:11.862Z,100621.66
2022-11-21T08:42:38.531Z,100628.56
2022-11-21T08:45:06.413Z,100609.91
2022-11-21T08:47:33.879Z,100609.94
2022-11-21T08:50:04.338Z,100608.94
2022-11-21T08:52:34.299Z,100593.19
2022-11-21T08:55:00.797Z,100591.88
2022-11-21T08:57:27.430Z,100587.72
2022-11-21T08:59:54.295Z,100582.47
2022-11-21T09:02:20.833Z,100576.69
2022-11-21T09:04:47.527Z,100571.47
2022-11-21T09:07:14.117Z,100573.09
2022-11-21T09:09:41.052Z,100567.28
2022-11-21T09:12:07.838Z,100561.50
2022-11-21T09:14:52.822Z,100563.63
2022-11-21T09:17:37.962Z,100558.41
2022-11-21T09:20:05.106Z,100551.34
2022-11-21T09:22:31.664Z,100541.59
2022-11-21T09:24:58.175Z,100544.28
2022-11-21T09:27:24.805Z,100554.81
2022-11-21T09:29:54.209Z,100547.75
2022-11-21T09:32:21.388Z,100545.41
2022-11-21T09:34:47.960Z,100542.22
2022-11-21T09:37:14.542Z,100536.19
2022-11-21T09:39:41.196Z,100533.84
2022-11-21T09:42:34.232Z,100522.50
2022-11-21T09:45:21.748Z,100527.81
2022-11-21T09:47:51.137Z,100526.25
2022-11-21T09:50:37.844Z,100514.91
2022-11-21T09:53:15.378Z,100508.31
2022-11-21T09:55:58.766Z,100510.44
2022-11-21T09:58:47.108Z,100512.03
2022-11-21T10:01:14.593Z,100508.06
2022-11-21T10:03:49.332Z,100500.44
2022-11-21T10:06:43.682Z,100492.50
2022-11-21T10:09:26.962Z,100496.22
2022-11-21T10:12:39.641Z,100493.06
2022-11-21T10:15:32.197Z,100492.03
2022-11-21T10:18:43.210Z,100499.41
2022-11-21T10:21:24.432Z,100498.13
2022-11-21T10:24:33.709Z,100497.06
2022-11-21T10:27:05.875Z,100493.88
2022-11-21T10:29:43.118Z,100496.00
2022-11-21T10:32:23.071Z,100489.16
2022-11-21T10:34:53.084Z,100479.94
2022-11-21T10:37:35.232Z,100476.75
2022-11-21T10:40:22.350Z,100467.50
2022-11-21T10:42:56.155Z,100461.72
2022-11-21T10:45:23.478Z,100463.03
2022-11-21T10:47:51.922Z,100461.19
2022-11-21T10:50:46.841Z,100451.16
2022-11-21T10:53:43.031Z,100445.31
2022-11-21T10:56:19.747Z,100445.34
2022-11-21T10:58:50.539Z,100437.66
2022-11-21T11:01:20.660Z,100438.69
2022-11-21T11:04:06.973Z,100436.84
2022-11-21T11:06:34.559Z,100443.69
2022-11-21T11:09:01.079Z,100436.28
2022-11-21T11:11:27.699Z,100431.28
2022-11-21T11:14:05.149Z,100434.69
2022-11-21T11:16:41.266Z,100426.22
2022-11-21T11:19:31.773Z,100411.41
2022-11-21T11:22:02.147Z,100415.63
2022-11-21T11:24:28.799Z,100409.25
2022-11-21T11:27:00.115Z,100394.97
2022-11-21T11:29:30.990Z,100397.56
2022-11-21T11:32:02.034Z,100388.28
2022-11-21T11:34:41.223Z,100386.94
2022-11-21T11:37:40.439Z,100384.81
2022-11-21T11:40:28.810Z,100376.56
2022-11-21T11:43:47.244Z,100364.91
2022-11-21T11:47:04.590Z,100368.56
2022-11-21T11:49:58.316Z,100365.66
2022-11-21T11:52:36.057Z,100364.31
2022-11-21T11:55:07.714Z,100348.69
2022-11-21T11:57:37.349Z,100344.72
2022-11-21T12:00:08.111Z,100341.22
2022-11-21T12:02:49.090Z,100336.19
2022-11-21T12:05:27.200Z,100318.97
2022-11-21T12:11:54.603Z,100305.66
2022-11-21T12:15:19.135Z,100294.78
2022-11-21T12:18:29.238Z,100285.81
2022-11-21T12:21:11.447Z,100273.06
2022-11-21T12:23:57.181Z,100275.94
2022-11-21T12:26:37.752Z,100271.41
2022-11-21T12:29:27.737Z,100266.84
2022-11-21T12:32:57.187Z,100263.09
2022-11-21T12:36:09.018Z,100244.50
2022-11-21T12:39:10.997Z,100244.16
2022-11-21T12:42:16.216Z,100240.94
2022-11-21T12:45:21.035Z,100235.06
2022-11-21T12:48:34.931Z,100228.72
2022-11-21T12:52:02.126Z,100220.47
2022-11-21T12:55:09.979Z,100217.03
2022-11-21T12:57:54.421Z,100207.53
2022-11-21T13:00:59.424Z,100193.50
2022-11-21T13:03:45.699Z,100191.94
2022-11-21T13:06:24.835Z,100182.13
2022-11-21T13:08:54.476Z,100181.84
2022-11-21T13:12:04.795Z,100165.97
2022-11-21T13:15:02.601Z,100165.97
2022-11-21T13:17:37.063Z,100165.97
2022-11-21T13:20:46.699Z,100155.88
2022-11-21T13:23:51.704Z,100158.25
2022-11-21T13:26:58.355Z,100150.00
2022-11-21T13:29:24.984Z,100135.69
2022-11-21T13:31:51.601Z,100129.31
2022-11-21T13:34:37.925Z,100125.31
2022-11-21T13:37:05.967Z,100126.88
2022-11-21T13:39:34.896Z,100127.38
2022-11-21T13:42:24.991Z,100123.09
2022-11-21T13:44:51.822Z,100116.25
2022-11-21T13:48:00.056Z,100106.94
2022-11-21T13:51:04.230Z,100104.78
2022-11-21T13:54:21.864Z,100100.25
2022-11-21T13:57:16.023Z,100092.59
2022-11-21T14:00:03.555Z,100077.50
2022-11-21T14:02:48.722Z,100064.84
2022-11-21T14:05:44.660Z,100063.28
2022-11-21T14:08:17.006Z,100051.38
2022-11-21T14:10:46.340Z,100051.69
2022-11-21T14:13:34.498Z,100049.03
2022-11-21T14:16:31.557Z,100050.59
2022-11-21T14:18:58.711Z,100050.59
2022-11-21T14:21:28.524Z,100049.53
2022-11-21T14:24:06.108Z,100052.19
2022-11-21T14:26:40.638Z,100037.06
2022-11-21T14:29:17.826Z,100034.63
2022-11-21T14:31:47.325Z,100023.22
2022-11-21T14:34:25.303Z,100022.47
2022-11-21T14:36:57.007Z,100023.81
2022-11-21T14:39:38.737Z,100007.66
2022-11-21T14:42:13.679Z,100000.50
2022-11-21T14:44:40.362Z,100006.56
2022-11-21T14:47:26.137Z,99996.25
2022-11-21T14:49:59.773Z,99997.63
2022-11-21T14:52:31.703Z,99988.13
2022-11-21T14:57:50.102Z,99993.22
2022-11-21T15:00:57.921Z,99984.75
2022-11-21T15:03:24.260Z,99985.53
2022-11-21T15:06:05.933Z,99981.63
2022-11-21T15:11:24.694Z,99980.84
2022-11-21T15:16:47.238Z,99972.91
2022-11-21T15:19:20.502Z,99971.81
2022-11-21T15:21:47.366Z,99971.03
2022-11-21T15:25:05.430Z,99954.38
2022-11-21T15:27:33.924Z,99956.50
2022-11-21T15:30:04.358Z,99952.28
2022-11-21T15:32:30.971Z,99935.13
2022-11-21T15:34:57.603Z,99943.06
2022-11-21T15:37:25.555Z,99934.91
2022-11-21T15:39:53.830Z,99935.19
2022-11-21T15:42:32.223Z,99935.19
2022-11-21T15:45:03.337Z,99927.56
2022-11-21T15:47:30.132Z,99919.63
2022-11-21T15:49:56.620Z,99908.53
2022-11-21T15:52:23.653Z,99906.66
2022-11-21T15:54:50.379Z,99897.94
2022-11-21T15:59:51.062Z,99881.84
2022-11-21T16:02:17.598Z,99885.56
2022-11-21T16:04:44.149Z,99880.28
2022-11-21T16:07:10.887Z,99875.78
2022-11-21T16:09:38.620Z,99873.41
2022-11-21T16:12:05.382Z,99867.41
2022-11-21T16:14:32.027Z,99852.63
2022-11-21T16:16:58.597Z,99857.13
2022-11-21T16:19:26.023Z,99850.25
2022-11-21T16:21:53.807Z,99850.25
2022-11-21T16:24:20.896Z,99848.69
2022-11-21T16:26:49.364Z,99848.19
2022-11-21T16:29:16.128Z,99848.19
2022-11-21T16:31:42.868Z,99861.13
2022-11-21T16:34:09.422Z,99861.94
2022-11-21T16:36:36.075Z,99859.78
2022-11-21T16:39:08.747Z,99858.41
2022-11-21T16:41:37.049Z,99849.09
2022-11-21T16:44:03.983Z,99842.75
2022-11-21T16:46:30.621Z,99834.78
2022-11-21T16:49:02.908Z,99833.72
2022-11-21T16:51:30.435Z,99826.84
2022-11-21T16:53:59.648Z,99814.69
2022-11-21T16:56:29.819Z,99812.03
2022-11-21T16:58:56.380Z,99804.88
2022-11-21T17:01:25.422Z,99803.59
2022-11-21T17:03:52.746Z,99801.72
2022-11-21T17:06:23.278Z,99790.09
2022-11-21T17:08:50.004Z,99793.63
2022-11-21T17:11:22.055Z,99778.50
2022-11-21T17:13:50.812Z,99787.03
2022-11-21T17:16:19.748Z,99774.59
2022-11-21T17:18:46.922Z,99782.53
2022-11-21T17:21:16.359Z,99776.16
2022-11-21T17:23:45.129Z,99774.09
2022-11-21T17:26:14.613Z,99764.59
2022-11-21T17:28:45.683Z,99760.06
2022-11-21T17:31:15.637Z,99758.22
2022-11-21T17:33:43.271Z,99750.78
2022-11-21T17:36:14.428Z,99739.22
2022-11-21T17:38:40.989Z,99736.56
2022-11-21T17:41:12.742Z,99733.09
2022-11-21T17:43:39.397Z,99727.03
2022-11-21T17:46:10.484Z,99715.41
2022-11-21T17:48:37.753Z,99713.91
2022-11-21T17:51:07.352Z,99709.97
2022-11-21T17:53:36.726Z,99702.63
2022-11-21T17:56:05.140Z,99697.63
2022-11-21T17:58:32.478Z,99691.56
2022-11-21T18:01:01.571Z,99690.50
2022-11-21T18:03:29.163Z,99690.28
2022-11-21T18:06:21.934Z,99694.50
2022-11-21T18:08:49.204Z,99686.06
2022-11-21T18:11:19.714Z,99684.50
2022-11-21T18:13:48.112Z,99676.38
2022-11-21T18:16:17.630Z,99676.38
2022-11-21T18:18:44.377Z,99673.44
2022-11-21T18:21:14.785Z,99658.84
2022-11-21T18:23:41.750Z,99668.16
2022-11-21T18:26:12.404Z,99670.31
2022-11-21T18:28:39.324Z,99670.31
2022-11-21T18:31:15.660Z,99662.09
2022-11-21T18:33:43.480Z,99655.81
2022-11-21T18:36:11.800Z,99646.22
2022-11-21T18:38:49.306Z,99646.50
2022-11-21T18:41:23.034Z,99635.13
2022-11-21T18:43:57.428Z,99629.03
2022-11-21T18:46:25.320Z,99623.25
2022-11-21T18:49:04.176Z,99615.81
2022-11-21T18:51:32.553Z,99613.47
2022-11-21T18:54:04.242Z,99612.88
2022-11-21T18:56:31.057Z,99608.84
2022-11-21T18:58:58.986Z,99602.00
2022-11-21T19:01:28.829Z,99605.22
2022-11-21T19:03:55.871Z,99606.53
2022-11-21T19:06:24.377Z,99602.00
2022-11-21T19:08:53.474Z,99594.84
2022-11-21T19:11:21.786Z,99603.09
2022-11-21T19:13:48.922Z,99600.16
2022-11-21T19:16:18.427Z,99601.25
2022-11-21T19:18:59.816Z,99598.28
2022-11-21T19:21:34.968Z,99591.16
2022-11-21T19:24:01.459Z,99587.22
2022-11-21T19:26:29.134Z,99585.84
2022-11-21T19:28:55.674Z,99573.41
2022-11-21T19:31:22.215Z,99578.69
2022-11-21T19:33:48.706Z,99567.50
2022-11-21T19:36:18.352Z,99560.94
2022-11-21T19:38:50.668Z,99565.19
2022-11-21T19:41:26.657Z,99562.81
2022-11-21T19:43:58.092Z,99568.13
2022-11-21T19:46:31.774Z,99561.44
2022-11-21T19:48:58.996Z,99554.59
2022-11-21T19:51:30.793Z,99554.78
2022-11-21T19:53:57.808Z,99558.22
2022-11-21T19:56:26.696Z,99554.97
2022-11-21T19:58:55.016Z,99558.38
2022-11-21T20:01:24.243Z,99550.94
2022-11-21T20:03:54.144Z,99550.66
2022-11-21T20:06:23.974Z,99546.44
2022-11-21T20:08:54.256Z,99540.06
2022-11-21T20:11:21.590Z,99531.03
2022-11-21T20:13:49.469Z,99535.56
2022-11-21T20:16:23.195Z,99521.53
2022-11-21T20:18:51.102Z,99526.84
2022-11-21T20:21:19.179Z,99520.78
2022-11-21T20:23:46.530Z,99511.53
2022-11-21T20:26:13.777Z,99508.91
2022-11-21T20:28:40.510Z,99509.03
2022-11-21T20:31:10.301Z,99508.25
2022-11-21T20:33:38.931Z,99494.53
2022-11-21T20:36:08.400Z,99491.88
2022-11-21T20:38:35.467Z,99494.53
2022-11-21T20:41:02.078Z,99495.91
2022-11-21T20:43:52.619Z,99498.56
2022-11-21T20:46:20.077Z,99489.03
2022-11-21T20:48:47.424Z,99493.66
2022-11-21T20:54:03.654Z,99496.00
2022-11-21T20:56:34.769Z,99488.19
2022-11-21T20:59:01.570Z,99490.03
2022-11-21T21:01:28.700Z,99478.97
2022-11-21T21:03:55.954Z,99479.28
2022-11-21T21:06:24.320Z,99486.25
2022-11-21T21:08:51.856Z,99494.75
2022-11-21T21:14:10.111Z,99499.59
2022-11-21T21:16:36.775Z,99481.47
2022-11-21T21:19:03.579Z,99482.63
2022-11-21T21:21:32.991Z,99480.69
2022-11-21T21:24:19.902Z,99472.09
2022-11-21T21:26:48.956Z,99465.91
2022-11-21T21:29:18.392Z,99466.31
2022-11-21T21:31:51.069Z,99463.47
2022-11-21T21:34:19.665Z,99462.78
2022-11-21T21:36:46.577Z,99455.75
2022-11-21T21:39:13.297Z,99456.59
2022-11-21T21:41:42.009Z,99454.56
2022-11-21T21:44:08.576Z,99448.28
2022-11-21T21:46:35.171Z,99449.66
2022-11-21T21:49:01.691Z,99448.69
2022-11-21T21:51:30.474Z,99439.94
2022-11-21T21:53:59.062Z,99431.06
2022-11-21T21:56:27.460Z,99443.25
2022-11-21T21:58:54.756Z,99437.81
2022-11-21T22:01:24.297Z,99420.38
2022-11-21T22:03:59.786Z,99430.44
2022-11-21T22:06:27.055Z,99423.91
2022-11-21T22:08:54.394Z,99416.56
2022-11-21T22:11:26.356Z,99420.28
2022-11-21T22:13:55.230Z,99409.72
2022-11-21T22:16:22.311Z,99405.81
2022-11-21T22:18:48.951Z,99410.31
2022-11-21T22:21:28.019Z,99415.59
2022-11-21T22:24:24.081Z,99414.00
2022-11-21T22:26:43.031Z,99409.81
2022-11-21T22:29:09.623Z,99395.03
2022-11-21T22:31:36.575Z,99405.59
2022-11-21T22:34:04.005Z,99408.25
2022-11-21T22:36:30.697Z,99403.56
2022-11-21T22:38:57.102Z,99399.81
2022-11-21T22:41:26.614Z,99389.28
2022-11-21T22:43:59.428Z,99389.56
2022-11-21T22:46:29.088Z,99390.91
2022-11-21T22:48:56.168Z,99381.13
2022-11-21T22:51:25.399Z,99389.56
2022-11-21T22:53:52.783Z,99366.59
2022-11-21T22:56:21.951Z,99360.03
2022-11-21T22:58:49.761Z,99361.91
2022-11-21T23:01:19.823Z,99359.25
2022-11-21T23:03:46.932Z,99361.59
2022-11-21T23:06:17.128Z,99356.63
2022-11-21T23:08:45.045Z,99357.38
2022-11-21T23:11:22.746Z,99346.56
2022-11-21T23:13:50.104Z,99357.38
2022-11-21T23:16:17.302Z,99346.56
2022-11-21T23:18:44.382Z,99349.19
2022-11-21T23:21:12.610Z,99341.00
2022-11-21T23:23:39.985Z,99359.47
2022-11-21T23:26:06.738Z,99353.69
2022-11-21T23:28:34.000Z,99355.72
2022-11-21T23:31:00.599Z,99345.19
2022-11-21T23:33:27.382Z,99339.13
2022-11-21T23:35:53.935Z,99350.47
2022-11-21T23:38:21.783Z,99340.22
2022-11-21T23:40:49.176Z,99337.25
2022-11-21T23:43:16.627Z,99323.28
2022-11-21T23:45:43.599Z,99327.78
2022-11-21T23:48:10.278Z,99331.97
2022-11-21T23:50:37.191Z,99331.22
2022-11-21T23:53:03.740Z,99331.69
2022-11-21T23:55:30.342Z,99330.94
2022-11-21T23:57:56.995Z,99340.72
